Terminal Aerodrome Forecast
Issued by NWS Medford, OR

Home | Current Version | Previous Version | Text Only | Print | Product List | Glossary On
Versions: 1 2 3 4 5 6 7 8 9 10 11 12 13 14 15 16
829
FTUS46 KMFR 271741
TAFMFR
TAF
KMFR 271741Z 2718/2818 32005KT P6SM FEW060
     FM272300 34008G16KT P6SM FEW060
     FM280400 VRB02KT P6SM SKC=

USA.gov is the U.S. government's official web portal to all federal, state and local government web resources and services.